Time,TemperatureF,DewpointF,PressureIn,WindDirection,WindDirectionDegrees,WindSpeedMPH,WindSpeedGustMPH,Humidity,HourlyPrecipIn,Conditions,Clouds,dailyrainin,SoftwareType,DateUTC
2014-09-20 00:12:00,62.0,44.0,-100.00,WNW,290,2.0,3.0,52,-99.99,,,0.00,,2014-09-20 06:12:00,
2014-09-20 00:22:00,62.0,44.0,-100.00,WNW,290,2.0,3.0,52,-99.99,,,0.00,,2014-09-20 06:22:00,
2014-09-20 00:32:00,62.0,44.0,-100.00,WNW,290,2.0,3.0,52,-99.99,,,0.00,,2014-09-20 06:32:00,
2014-09-20 00:52:00,62.0,44.0,-100.00,WNW,285,1.0,3.0,51,-99.99,,,0.00,,2014-09-20 06:52:00,
2014-09-20 01:12:00,62.0,44.0,-100.00,NNW,335,3.0,7.0,52,-99.99,,,0.00,,2014-09-20 07:12:00,
2014-09-20 01:53:00,61.0,44.0,-100.00,NW,325,3.0,6.0,53,-99.99,,,0.00,,2014-09-20 07:53:00,
2014-09-20 02:12:00,59.0,44.0,-100.00,NW,325,4.0,6.0,57,-99.99,,,0.00,,2014-09-20 08:12:00,
2014-09-20 02:52:00,58.0,42.0,-100.00,NNW,340,6.0,9.0,55,-99.99,,,0.00,,2014-09-20 08:52:00,
2014-09-20 03:12:00,59.0,42.0,-100.00,North,355,5.0,9.0,54,-99.99,,,0.00,,2014-09-20 09:12:00,
2014-09-20 03:54:00,59.0,41.0,-100.00,NNW,340,11.0,14.0,52,-99.99,,,0.00,,2014-09-20 09:54:00,
2014-09-20 04:13:00,59.0,41.0,-100.00,NNW,340,11.0,16.0,51,-99.99,,,0.00,,2014-09-20 10:13:00,
2014-09-20 04:53:00,58.0,41.0,-100.00,NW,325,12.0,19.0,54,-99.99,,,-99.99,,2014-09-20 10:53:00,
2014-09-20 05:13:00,56.0,41.0,-100.00,NNW,335,10.0,17.0,57,-99.99,,,-99.99,,2014-09-20 11:13:00,
2014-09-20 05:52:00,55.0,41.0,-100.00,NNW,340,9.0,11.0,58,-99.99,,,0.00,,2014-09-20 11:52:00,
2014-09-20 06:12:00,55.0,40.0,-100.00,NNW,345,11.0,12.0,57,-99.99,,,0.00,,2014-09-20 12:12:00,
2014-09-20 06:52:00,54.0,41.0,-100.00,NNW,345,12.0,15.0,60,-99.99,,,0.00,,2014-09-20 12:52:00,
2014-09-20 07:12:00,54.0,41.0,-100.00,NNW,340,9.0,12.0,61,-99.99,,,0.00,,2014-09-20 13:12:00,
2014-09-20 07:52:00,53.0,40.0,-100.00,NW,325,9.0,11.0,61,-99.99,,,0.00,,2014-09-20 13:52:00,
2014-09-20 08:12:00,57.0,40.0,-100.00,NW,320,12.0,14.0,53,-99.99,,,0.00,,2014-09-20 14:12:00,
2014-09-20 08:52:00,59.0,42.0,-100.00,NNW,335,10.0,13.0,53,-99.99,,,-99.99,,2014-09-20 14:52:00,
2014-09-20 09:12:00,60.0,42.0,-100.00,NW,320,11.0,15.0,51,-99.99,,,-99.99,,2014-09-20 15:12:00,
2014-09-20 09:54:00,62.0,43.0,-100.00,NW,320,16.0,21.0,50,-99.99,,,0.00,,2014-09-20 15:54:00,
2014-09-20 10:13:00,62.0,43.0,-100.00,North,0,17.0,20.0,49,-99.99,,,0.00,,2014-09-20 16:13:00,
2014-09-20 10:53:00,64.0,41.0,-100.00,NNW,340,17.0,24.0,43,-99.99,,,0.00,,2014-09-20 16:53:00,
2014-09-20 11:53:00,65.0,40.0,-100.00,North,355,21.0,26.0,40,-99.99,,,0.00,,2014-09-20 17:53:00,
2014-09-20 12:12:00,65.0,39.0,-100.00,NNW,330,20.0,25.0,38,-99.99,,,0.00,,2014-09-20 18:12:00,
2014-09-20 12:22:00,65.0,39.0,-100.00,NNW,330,20.0,25.0,38,-99.99,,,0.00,,2014-09-20 18:22:00,
2014-09-20 12:33:00,65.0,39.0,-100.00,NNW,330,20.0,25.0,38,-99.99,,,0.00,,2014-09-20 18:33:00,
2014-09-20 12:52:00,65.0,40.0,-100.00,North,350,15.0,24.0,39,-99.99,,,0.00,,2014-09-20 18:52:00,
2014-09-20 13:12:00,66.0,40.0,-100.00,North,350,17.0,20.0,38,-99.99,,,0.00,,2014-09-20 19:12:00,
2014-09-20 13:22:00,66.0,40.0,-100.00,North,350,17.0,20.0,38,-99.99,,,0.00,,2014-09-20 19:22:00,
2014-09-20 13:32:00,66.0,40.0,-100.00,North,350,17.0,20.0,38,-99.99,,,0.00,,2014-09-20 19:32:00,
2014-09-20 13:52:00,67.0,40.0,-100.00,NNW,340,19.0,26.0,38,-99.99,,,0.00,,2014-09-20 19:52:00,
2014-09-20 14:12:00,67.0,39.0,-100.00,NNW,345,19.0,24.0,36,-99.99,,,0.00,,2014-09-20 20:12:00,
2014-09-20 14:22:00,67.0,39.0,-100.00,NNW,345,19.0,24.0,36,-99.99,,,0.00,,2014-09-20 20:22:00,
2014-09-20 14:33:00,67.0,39.0,-100.00,NNW,345,19.0,24.0,36,-99.99,,,0.00,,2014-09-20 20:33:00,
2014-09-20 14:52:00,68.0,39.0,-100.00,NNW,345,17.0,21.0,35,-99.99,,,0.00,,2014-09-20 20:52:00,
2014-09-20 15:12:00,68.0,38.0,-100.00,North,0,13.0,19.0,33,-99.99,,,0.00,,2014-09-20 21:12:00,
2014-09-20 15:54:00,69.0,40.0,-100.00,North,350,13.0,17.0,35,-99.99,,,0.00,,2014-09-20 21:54:00,
2014-09-20 16:13:00,68.0,39.0,-100.00,North,350,11.0,17.0,35,-99.99,,,0.00,,2014-09-20 22:13:00,
2014-09-20 16:53:00,69.0,41.0,-100.00,NW,315,9.0,13.0,36,-99.99,,,0.00,,2014-09-20 22:53:00,
2014-09-20 17:12:00,68.0,39.0,-100.00,North,10,5.0,9.0,34,-99.99,,,0.00,,2014-09-20 23:12:00,
2014-09-20 17:52:00,68.0,38.0,-100.00,NNW,330,4.0,9.0,33,-99.99,,,0.00,,2014-09-20 23:52:00,
2014-09-20 18:12:00,68.0,37.0,-100.00,NNE,15,5.0,8.0,32,-99.99,,,0.00,,2014-09-21 00:12:00,
2014-09-20 18:53:00,67.0,37.0,-100.00,NNE,25,6.0,8.0,34,-99.99,,,0.00,,2014-09-21 00:53:00,
2014-09-20 19:12:00,66.0,38.0,-100.00,NNE,30,5.0,6.0,35,-99.99,,,0.00,,2014-09-21 01:12:00,
2014-09-20 19:52:00,64.0,37.0,-100.00,NE,45,6.0,6.0,36,-99.99,,,-99.99,,2014-09-21 01:52:00,
2014-09-20 20:12:00,64.0,36.0,-100.00,NE,50,6.0,6.0,36,-99.99,,,0.00,,2014-09-21 02:12:00,
2014-09-20 20:52:00,60.0,39.0,-100.00,WSW,255,2.0,3.0,45,-99.99,,,0.00,,2014-09-21 02:52:00,
2014-09-20 21:12:00,59.0,39.0,-100.00,West,270,1.0,2.0,47,-99.99,,,0.00,,2014-09-21 03:12:00,
2014-09-20 21:54:00,59.0,38.0,-100.00,SE,145,6.0,7.0,45,-99.99,,,0.00,,2014-09-21 03:54:00,
2014-09-20 22:02:00,-999.0,-99.9,-100.00,SSE,155,7.0,8.0,-999,-99.99,,,-99.99,,2014-09-21 04:02:00,
2014-09-20 22:13:00,60.0,38.0,-100.00,SSE,155,7.0,8.0,43,-99.99,,,0.00,,2014-09-21 04:13:00,